sensor_id;sensor_type;location;lat;lon;timestamp;P1;durP1;ratioP1;P2;durP2;ratioP2
50683;SDS011;36654;45.042;38.994;2024-01-30T00:02:11;9.38;;;5.70;;
50683;SDS011;36654;45.042;38.994;2024-01-30T00:04:37;9.88;;;5.60;;
50683;SDS011;36654;45.042;38.994;2024-01-30T00:07:03;6.40;;;4.45;;
50683;SDS011;36654;45.042;38.994;2024-01-30T00:09:30;6.68;;;4.90;;
50683;SDS011;36654;45.042;38.994;2024-01-30T00:11:56;10.43;;;5.22;;
50683;SDS011;36654;45.042;38.994;2024-01-30T00:14:22;8.05;;;5.90;;
50683;SDS011;36654;45.042;38.994;2024-01-30T00:16:48;9.45;;;6.07;;
50683;SDS011;36654;45.042;38.994;2024-01-30T00:19:14;11.55;;;6.53;;
50683;SDS011;36654;45.042;38.994;2024-01-30T00:21:41;9.13;;;6.63;;
50683;SDS011;36654;45.042;38.994;2024-01-30T00:24:06;14.80;;;7.57;;
50683;SDS011;36654;45.042;38.994;2024-01-30T00:26:32;11.35;;;6.47;;
50683;SDS011;36654;45.042;38.994;2024-01-30T00:28:59;10.48;;;6.25;;
50683;SDS011;36654;45.042;38.994;2024-01-30T00:31:25;14.02;;;7.72;;
50683;SDS011;36654;45.042;38.994;2024-01-30T00:33:50;11.27;;;5.63;;
50683;SDS011;36654;45.042;38.994;2024-01-30T00:36:16;8.95;;;5.60;;
50683;SDS011;36654;45.042;38.994;2024-01-30T00:38:42;11.15;;;5.78;;
50683;SDS011;36654;45.042;38.994;2024-01-30T00:41:08;10.93;;;6.50;;
50683;SDS011;36654;45.042;38.994;2024-01-30T00:43:34;9.48;;;5.88;;
50683;SDS011;36654;45.042;38.994;2024-01-30T00:46:00;16.50;;;6.68;;
50683;SDS011;36654;45.042;38.994;2024-01-30T00:48:25;10.70;;;6.43;;
50683;SDS011;36654;45.042;38.994;2024-01-30T00:50:51;13.15;;;5.47;;
50683;SDS011;36654;45.042;38.994;2024-01-30T00:53:17;10.27;;;5.30;;
50683;SDS011;36654;45.042;38.994;2024-01-30T00:55:43;8.95;;;4.85;;
50683;SDS011;36654;45.042;38.994;2024-01-30T00:58:08;9.70;;;5.80;;
50683;SDS011;36654;45.042;38.994;2024-01-30T01:00:34;10.20;;;5.78;;
50683;SDS011;36654;45.042;38.994;2024-01-30T01:03:00;8.93;;;6.00;;
50683;SDS011;36654;45.042;38.994;2024-01-30T01:05:26;7.97;;;5.55;;
50683;SDS011;36654;45.042;38.994;2024-01-30T01:07:52;11.57;;;5.38;;
50683;SDS011;36654;45.042;38.994;2024-01-30T01:10:18;7.30;;;4.95;;
50683;SDS011;36654;45.042;38.994;2024-01-30T01:12:44;9.20;;;5.30;;
50683;SDS011;36654;45.042;38.994;2024-01-30T01:15:10;9.02;;;4.95;;
50683;SDS011;36654;45.042;38.994;2024-01-30T01:17:36;7.72;;;5.07;;
50683;SDS011;36654;45.042;38.994;2024-01-30T01:20:02;8.77;;;5.47;;
50683;SDS011;36654;45.042;38.994;2024-01-30T01:22:30;11.07;;;5.80;;
50683;SDS011;36654;45.042;38.994;2024-01-30T01:24:57;10.52;;;5.95;;
50683;SDS011;36654;45.042;38.994;2024-01-30T01:27:22;8.90;;;4.93;;
50683;SDS011;36654;45.042;38.994;2024-01-30T01:29:48;7.30;;;4.88;;
50683;SDS011;36654;45.042;38.994;2024-01-30T01:32:13;7.82;;;5.47;;
50683;SDS011;36654;45.042;38.994;2024-01-30T01:34:39;10.30;;;5.72;;
50683;SDS011;36654;45.042;38.994;2024-01-30T01:37:05;8.32;;;5.13;;
50683;SDS011;36654;45.042;38.994;2024-01-30T01:39:32;8.98;;;5.60;;
50683;SDS011;36654;45.042;38.994;2024-01-30T01:41:58;13.00;;;5.70;;
50683;SDS011;36654;45.042;38.994;2024-01-30T01:44:24;7.15;;;5.30;;
50683;SDS011;36654;45.042;38.994;2024-01-30T01:46:50;8.15;;;5.10;;
50683;SDS011;36654;45.042;38.994;2024-01-30T01:49:16;9.82;;;5.85;;
50683;SDS011;36654;45.042;38.994;2024-01-30T01:51:42;6.65;;;5.10;;
50683;SDS011;36654;45.042;38.994;2024-01-30T01:54:09;9.82;;;5.00;;
50683;SDS011;36654;45.042;38.994;2024-01-30T01:56:36;8.98;;;5.78;;
50683;SDS011;36654;45.042;38.994;2024-01-30T01:59:06;7.82;;;5.65;;
50683;SDS011;36654;45.042;38.994;2024-01-30T02:01:33;9.82;;;6.13;;
50683;SDS011;36654;45.042;38.994;2024-01-30T02:04:01;11.52;;;7.32;;
50683;SDS011;36654;45.042;38.994;2024-01-30T02:06:27;11.60;;;6.57;;
50683;SDS011;36654;45.042;38.994;2024-01-30T02:08:53;7.95;;;4.93;;
50683;SDS011;36654;45.042;38.994;2024-01-30T02:11:20;11.00;;;5.72;;
50683;SDS011;36654;45.042;38.994;2024-01-30T02:13:47;10.13;;;5.43;;
50683;SDS011;36654;45.042;38.994;2024-01-30T02:16:13;8.05;;;5.28;;
50683;SDS011;36654;45.042;38.994;2024-01-30T02:18:38;12.77;;;6.60;;
50683;SDS011;36654;45.042;38.994;2024-01-30T02:21:08;13.18;;;5.78;;
50683;SDS011;36654;45.042;38.994;2024-01-30T02:23:34;11.25;;;7.13;;
50683;SDS011;36654;45.042;38.994;2024-01-30T02:26:00;11.55;;;7.43;;
50683;SDS011;36654;45.042;38.994;2024-01-30T02:28:26;10.93;;;6.53;;
50683;SDS011;36654;45.042;38.994;2024-01-30T02:30:52;8.95;;;5.50;;
50683;SDS011;36654;45.042;38.994;2024-01-30T02:33:18;8.90;;;4.78;;
50683;SDS011;36654;45.042;38.994;2024-01-30T02:35:48;11.20;;;5.63;;
50683;SDS011;36654;45.042;38.994;2024-01-30T02:38:15;10.02;;;5.50;;
50683;SDS011;36654;45.042;38.994;2024-01-30T02:40:41;9.52;;;5.82;;
50683;SDS011;36654;45.042;38.994;2024-01-30T02:43:06;11.90;;;6.35;;
50683;SDS011;36654;45.042;38.994;2024-01-30T02:45:32;9.20;;;5.97;;
50683;SDS011;36654;45.042;38.994;2024-01-30T02:47:57;9.75;;;5.82;;
50683;SDS011;36654;45.042;38.994;2024-01-30T02:50:23;10.88;;;5.57;;
50683;SDS011;36654;45.042;38.994;2024-01-30T02:52:49;9.07;;;6.30;;
50683;SDS011;36654;45.042;38.994;2024-01-30T02:55:15;11.70;;;5.75;;
50683;SDS011;36654;45.042;38.994;2024-01-30T02:57:43;9.70;;;6.32;;
50683;SDS011;36654;45.042;38.994;2024-01-30T03:00:09;11.07;;;6.82;;
50683;SDS011;36654;45.042;38.994;2024-01-30T03:02:35;12.43;;;6.30;;
50683;SDS011;36654;45.042;38.994;2024-01-30T03:05:02;11.10;;;6.43;;
50683;SDS011;36654;45.042;38.994;2024-01-30T03:07:30;9.48;;;6.40;;
50683;SDS011;36654;45.042;38.994;2024-01-30T03:09:55;11.23;;;6.00;;
50683;SDS011;36654;45.042;38.994;2024-01-30T03:12:21;7.80;;;4.85;;
50683;SDS011;36654;45.042;38.994;2024-01-30T03:14:47;12.13;;;6.93;;
50683;SDS011;36654;45.042;38.994;2024-01-30T03:17:13;12.57;;;6.75;;
50683;SDS011;36654;45.042;38.994;2024-01-30T03:19:38;16.80;;;7.45;;
50683;SDS011;36654;45.042;38.994;2024-01-30T03:22:04;11.60;;;6.75;;
50683;SDS011;36654;45.042;38.994;2024-01-30T03:24:30;12.15;;;7.18;;
50683;SDS011;36654;45.042;38.994;2024-01-30T03:26:55;13.85;;;7.60;;
50683;SDS011;36654;45.042;38.994;2024-01-30T03:29:21;10.90;;;6.45;;
50683;SDS011;36654;45.042;38.994;2024-01-30T03:31:47;10.18;;;5.95;;
50683;SDS011;36654;45.042;38.994;2024-01-30T03:34:12;12.65;;;7.38;;
50683;SDS011;36654;45.042;38.994;2024-01-30T03:36:38;14.43;;;8.18;;
50683;SDS011;36654;45.042;38.994;2024-01-30T03:39:03;14.00;;;6.97;;
50683;SDS011;36654;45.042;38.994;2024-01-30T03:41:29;14.32;;;6.95;;
50683;SDS011;36654;45.042;38.994;2024-01-30T03:43:55;11.43;;;6.65;;
50683;SDS011;36654;45.042;38.994;2024-01-30T03:46:20;11.95;;;7.13;;
50683;SDS011;36654;45.042;38.994;2024-01-30T03:48:46;11.75;;;6.40;;
50683;SDS011;36654;45.042;38.994;2024-01-30T03:51:12;11.98;;;6.50;;
50683;SDS011;36654;45.042;38.994;2024-01-30T03:53:43;13.73;;;7.05;;
50683;SDS011;36654;45.042;38.994;2024-01-30T03:56:11;11.27;;;7.07;;
50683;SDS011;36654;45.042;38.994;2024-01-30T03:58:38;11.80;;;6.82;;
50683;SDS011;36654;45.042;38.994;2024-01-30T04:01:04;12.20;;;6.90;;
50683;SDS011;36654;45.042;38.994;2024-01-30T04:03:30;10.35;;;7.00;;
50683;SDS011;36654;45.042;38.994;2024-01-30T04:05:55;11.93;;;7.22;;
50683;SDS011;36654;45.042;38.994;2024-01-30T04:08:21;12.18;;;6.80;;
50683;SDS011;36654;45.042;38.994;2024-01-30T04:10:47;9.15;;;6.60;;
50683;SDS011;36654;45.042;38.994;2024-01-30T04:13:13;11.88;;;6.97;;
50683;SDS011;36654;45.042;38.994;2024-01-30T04:15:39;12.73;;;6.90;;
50683;SDS011;36654;45.042;38.994;2024-01-30T04:18:05;11.68;;;7.00;;
50683;SDS011;36654;45.042;38.994;2024-01-30T04:20:30;14.70;;;7.22;;
50683;SDS011;36654;45.042;38.994;2024-01-30T04:22:56;13.70;;;7.60;;
50683;SDS011;36654;45.042;38.994;2024-01-30T04:25:22;17.58;;;9.70;;
50683;SDS011;36654;45.042;38.994;2024-01-30T04:27:47;12.30;;;7.50;;
50683;SDS011;36654;45.042;38.994;2024-01-30T04:30:13;12.82;;;7.63;;
50683;SDS011;36654;45.042;38.994;2024-01-30T04:32:39;14.48;;;6.93;;
50683;SDS011;36654;45.042;38.994;2024-01-30T04:35:05;13.77;;;8.27;;
50683;SDS011;36654;45.042;38.994;2024-01-30T04:37:31;17.48;;;6.72;;
50683;SDS011;36654;45.042;38.994;2024-01-30T04:39:57;13.18;;;7.65;;
50683;SDS011;36654;45.042;38.994;2024-01-30T04:42:23;12.18;;;6.63;;
50683;SDS011;36654;45.042;38.994;2024-01-30T04:44:49;12.02;;;7.05;;
50683;SDS011;36654;45.042;38.994;2024-01-30T04:47:15;15.02;;;7.32;;
50683;SDS011;36654;45.042;38.994;2024-01-30T04:49:41;12.48;;;7.68;;
50683;SDS011;36654;45.042;38.994;2024-01-30T04:52:08;12.75;;;7.35;;
50683;SDS011;36654;45.042;38.994;2024-01-30T04:54:34;13.75;;;6.82;;
50683;SDS011;36654;45.042;38.994;2024-01-30T04:57:01;17.77;;;7.78;;
50683;SDS011;36654;45.042;38.994;2024-01-30T04:59:27;11.80;;;6.35;;
50683;SDS011;36654;45.042;38.994;2024-01-30T05:01:52;17.33;;;8.55;;
50683;SDS011;36654;45.042;38.994;2024-01-30T05:04:18;16.77;;;7.57;;
50683;SDS011;36654;45.042;38.994;2024-01-30T05:06:44;12.63;;;7.13;;
50683;SDS011;36654;45.042;38.994;2024-01-30T05:09:10;14.82;;;8.13;;
50683;SDS011;36654;45.042;38.994;2024-01-30T05:11:41;12.77;;;7.70;;
50683;SDS011;36654;45.042;38.994;2024-01-30T05:14:07;19.13;;;8.35;;
50683;SDS011;36654;45.042;38.994;2024-01-30T05:16:34;15.75;;;8.07;;
50683;SDS011;36654;45.042;38.994;2024-01-30T05:18:59;13.82;;;8.02;;
50683;SDS011;36654;45.042;38.994;2024-01-30T05:21:25;15.70;;;6.68;;
50683;SDS011;36654;45.042;38.994;2024-01-30T05:23:50;12.55;;;7.05;;
50683;SDS011;36654;45.042;38.994;2024-01-30T05:26:16;17.33;;;7.38;;
50683;SDS011;36654;45.042;38.994;2024-01-30T05:28:43;11.82;;;6.95;;
50683;SDS011;36654;45.042;38.994;2024-01-30T05:31:11;10.68;;;6.85;;
50683;SDS011;36654;45.042;38.994;2024-01-30T05:33:44;14.68;;;8.10;;
50683;SDS011;36654;45.042;38.994;2024-01-30T05:36:11;10.48;;;6.00;;
50683;SDS011;36654;45.042;38.994;2024-01-30T05:38:39;12.82;;;7.72;;
50683;SDS011;36654;45.042;38.994;2024-01-30T05:41:04;13.93;;;7.68;;
50683;SDS011;36654;45.042;38.994;2024-01-30T05:43:30;12.50;;;6.95;;
50683;SDS011;36654;45.042;38.994;2024-01-30T05:45:57;12.52;;;8.07;;
50683;SDS011;36654;45.042;38.994;2024-01-30T05:48:23;14.15;;;7.00;;
50683;SDS011;36654;45.042;38.994;2024-01-30T05:50:48;13.23;;;6.18;;
50683;SDS011;36654;45.042;38.994;2024-01-30T05:53:14;15.25;;;7.68;;
50683;SDS011;36654;45.042;38.994;2024-01-30T05:55:39;11.73;;;6.88;;
50683;SDS011;36654;45.042;38.994;2024-01-30T05:58:05;10.85;;;7.32;;
50683;SDS011;36654;45.042;38.994;2024-01-30T06:00:31;12.70;;;6.85;;
50683;SDS011;36654;45.042;38.994;2024-01-30T06:02:56;12.65;;;6.47;;
50683;SDS011;36654;45.042;38.994;2024-01-30T06:05:23;19.17;;;7.90;;
50683;SDS011;36654;45.042;38.994;2024-01-30T06:07:50;14.45;;;6.75;;
50683;SDS011;36654;45.042;38.994;2024-01-30T06:10:15;15.02;;;7.38;;
50683;SDS011;36654;45.042;38.994;2024-01-30T06:12:42;8.63;;;5.65;;
50683;SDS011;36654;45.042;38.994;2024-01-30T06:15:08;12.32;;;6.90;;
50683;SDS011;36654;45.042;38.994;2024-01-30T06:17:36;12.43;;;6.95;;
50683;SDS011;36654;45.042;38.994;2024-01-30T06:20:02;14.98;;;7.05;;
50683;SDS011;36654;45.042;38.994;2024-01-30T06:22:29;13.45;;;7.13;;
50683;SDS011;36654;45.042;38.994;2024-01-30T06:24:55;15.85;;;7.05;;
50683;SDS011;36654;45.042;38.994;2024-01-30T06:27:21;12.07;;;6.95;;
50683;SDS011;36654;45.042;38.994;2024-01-30T06:29:46;17.90;;;7.30;;
50683;SDS011;36654;45.042;38.994;2024-01-30T06:32:12;12.95;;;7.75;;
50683;SDS011;36654;45.042;38.994;2024-01-30T06:34:37;15.10;;;6.68;;
50683;SDS011;36654;45.042;38.994;2024-01-30T06:37:05;21.80;;;8.60;;
50683;SDS011;36654;45.042;38.994;2024-01-30T06:39:30;18.50;;;8.35;;
50683;SDS011;36654;45.042;38.994;2024-01-30T06:41:59;13.88;;;6.80;;
50683;SDS011;36654;45.042;38.994;2024-01-30T06:44:24;12.32;;;7.00;;
50683;SDS011;36654;45.042;38.994;2024-01-30T06:46:50;11.90;;;6.95;;
50683;SDS011;36654;45.042;38.994;2024-01-30T06:49:16;16.58;;;6.88;;
50683;SDS011;36654;45.042;38.994;2024-01-30T06:51:42;10.45;;;6.40;;
50683;SDS011;36654;45.042;38.994;2024-01-30T06:54:08;14.43;;;6.93;;
50683;SDS011;36654;45.042;38.994;2024-01-30T06:56:34;19.08;;;6.18;;
50683;SDS011;36654;45.042;38.994;2024-01-30T06:58:59;11.50;;;7.68;;
50683;SDS011;36654;45.042;38.994;2024-01-30T07:01:31;15.32;;;7.30;;
50683;SDS011;36654;45.042;38.994;2024-01-30T07:03:57;14.50;;;7.18;;
50683;SDS011;36654;45.042;38.994;2024-01-30T07:06:23;9.80;;;6.53;;
50683;SDS011;36654;45.042;38.994;2024-01-30T07:08:50;19.50;;;8.10;;
50683;SDS011;36654;45.042;38.994;2024-01-30T07:11:19;15.95;;;7.68;;
50683;SDS011;36654;45.042;38.994;2024-01-30T07:13:46;14.70;;;6.47;;
50683;SDS011;36654;45.042;38.994;2024-01-30T07:16:12;14.25;;;7.25;;
50683;SDS011;36654;45.042;38.994;2024-01-30T07:18:38;19.98;;;8.15;;
50683;SDS011;36654;45.042;38.994;2024-01-30T07:21:03;15.02;;;6.93;;
50683;SDS011;36654;45.042;38.994;2024-01-30T07:23:29;11.32;;;7.10;;
50683;SDS011;36654;45.042;38.994;2024-01-30T07:25:57;13.57;;;7.15;;
50683;SDS011;36654;45.042;38.994;2024-01-30T07:28:22;11.88;;;7.15;;
50683;SDS011;36654;45.042;38.994;2024-01-30T07:30:49;15.35;;;7.38;;
50683;SDS011;36654;45.042;38.994;2024-01-30T07:33:15;14.18;;;6.97;;
50683;SDS011;36654;45.042;38.994;2024-01-30T07:35:41;13.48;;;7.07;;
50683;SDS011;36654;45.042;38.994;2024-01-30T07:38:07;12.40;;;7.43;;
50683;SDS011;36654;45.042;38.994;2024-01-30T07:40:33;16.73;;;7.60;;
50683;SDS011;36654;45.042;38.994;2024-01-30T07:43:00;15.10;;;6.55;;
50683;SDS011;36654;45.042;38.994;2024-01-30T07:45:26;15.35;;;7.50;;
50683;SDS011;36654;45.042;38.994;2024-01-30T07:47:52;9.88;;;6.47;;
50683;SDS011;36654;45.042;38.994;2024-01-30T07:50:18;15.30;;;7.63;;
50683;SDS011;36654;45.042;38.994;2024-01-30T07:52:48;11.93;;;6.95;;
50683;SDS011;36654;45.042;38.994;2024-01-30T07:55:19;15.95;;;7.70;;
50683;SDS011;36654;45.042;38.994;2024-01-30T07:57:52;12.95;;;7.40;;
50683;SDS011;36654;45.042;38.994;2024-01-30T08:00:18;15.32;;;7.18;;
50683;SDS011;36654;45.042;38.994;2024-01-30T08:02:47;14.90;;;6.93;;
50683;SDS011;36654;45.042;38.994;2024-01-30T08:05:14;15.60;;;7.65;;
50683;SDS011;36654;45.042;38.994;2024-01-30T08:07:41;17.83;;;8.85;;
50683;SDS011;36654;45.042;38.994;2024-01-30T08:10:08;13.68;;;7.07;;
50683;SDS011;36654;45.042;38.994;2024-01-30T08:12:36;13.10;;;7.47;;
50683;SDS011;36654;45.042;38.994;2024-01-30T08:15:01;13.73;;;6.78;;
50683;SDS011;36654;45.042;38.994;2024-01-30T08:17:28;14.23;;;6.85;;
50683;SDS011;36654;45.042;38.994;2024-01-30T08:19:53;21.80;;;9.38;;
50683;SDS011;36654;45.042;38.994;2024-01-30T08:22:19;13.00;;;6.70;;
50683;SDS011;36654;45.042;38.994;2024-01-30T08:24:45;12.13;;;7.38;;
50683;SDS011;36654;45.042;38.994;2024-01-30T08:27:10;13.88;;;6.57;;
50683;SDS011;36654;45.042;38.994;2024-01-30T08:29:37;13.05;;;7.15;;
50683;SDS011;36654;45.042;38.994;2024-01-30T08:32:04;12.25;;;7.45;;
50683;SDS011;36654;45.042;38.994;2024-01-30T08:34:30;14.25;;;6.45;;
50683;SDS011;36654;45.042;38.994;2024-01-30T08:36:56;15.30;;;7.05;;
50683;SDS011;36654;45.042;38.994;2024-01-30T08:39:22;12.25;;;6.90;;
50683;SDS011;36654;45.042;38.994;2024-01-30T08:41:48;19.60;;;6.90;;
50683;SDS011;36654;45.042;38.994;2024-01-30T08:44:13;14.43;;;6.97;;
50683;SDS011;36654;45.042;38.994;2024-01-30T08:46:39;12.05;;;6.32;;
50683;SDS011;36654;45.042;38.994;2024-01-30T08:49:04;11.90;;;6.50;;
50683;SDS011;36654;45.042;38.994;2024-01-30T08:51:30;15.27;;;6.53;;
50683;SDS011;36654;45.042;38.994;2024-01-30T08:53:56;11.40;;;6.88;;
50683;SDS011;36654;45.042;38.994;2024-01-30T08:56:23;9.57;;;5.45;;
50683;SDS011;36654;45.042;38.994;2024-01-30T08:58:48;8.50;;;5.75;;
50683;SDS011;36654;45.042;38.994;2024-01-30T09:01:14;10.27;;;5.30;;
50683;SDS011;36654;45.042;38.994;2024-01-30T09:03:40;9.25;;;5.55;;
50683;SDS011;36654;45.042;38.994;2024-01-30T09:06:09;10.60;;;5.38;;
50683;SDS011;36654;45.042;38.994;2024-01-30T09:08:35;9.45;;;5.10;;
50683;SDS011;36654;45.042;38.994;2024-01-30T09:11:00;13.68;;;5.95;;
50683;SDS011;36654;45.042;38.994;2024-01-30T09:13:35;11.18;;;5.95;;
50683;SDS011;36654;45.042;38.994;2024-01-30T09:16:00;8.43;;;5.22;;
50683;SDS011;36654;45.042;38.994;2024-01-30T09:18:26;9.77;;;5.22;;
50683;SDS011;36654;45.042;38.994;2024-01-30T09:20:52;8.95;;;4.80;;
50683;SDS011;36654;45.042;38.994;2024-01-30T09:23:17;7.90;;;4.45;;
50683;SDS011;36654;45.042;38.994;2024-01-30T09:25:44;14.70;;;4.60;;
50683;SDS011;36654;45.042;38.994;2024-01-30T09:28:11;10.30;;;4.70;;
50683;SDS011;36654;45.042;38.994;2024-01-30T09:30:36;6.65;;;4.15;;
50683;SDS011;36654;45.042;38.994;2024-01-30T09:33:02;9.73;;;4.45;;
50683;SDS011;36654;45.042;38.994;2024-01-30T09:35:28;6.70;;;4.10;;
50683;SDS011;36654;45.042;38.994;2024-01-30T09:37:55;7.13;;;4.72;;
50683;SDS011;36654;45.042;38.994;2024-01-30T09:40:22;12.27;;;4.85;;
50683;SDS011;36654;45.042;38.994;2024-01-30T09:42:47;7.40;;;4.38;;
50683;SDS011;36654;45.042;38.994;2024-01-30T09:45:17;8.63;;;4.63;;
50683;SDS011;36654;45.042;38.994;2024-01-30T09:47:45;6.57;;;3.78;;
50683;SDS011;36654;45.042;38.994;2024-01-30T09:50:13;8.57;;;3.80;;
50683;SDS011;36654;45.042;38.994;2024-01-30T09:52:40;8.77;;;4.05;;
50683;SDS011;36654;45.042;38.994;2024-01-30T09:55:06;6.53;;;3.88;;
50683;SDS011;36654;45.042;38.994;2024-01-30T09:57:34;10.18;;;4.30;;
50683;SDS011;36654;45.042;38.994;2024-01-30T10:00:00;6.72;;;4.18;;
50683;SDS011;36654;45.042;38.994;2024-01-30T10:02:25;5.25;;;4.15;;
50683;SDS011;36654;45.042;38.994;2024-01-30T10:04:51;13.50;;;4.43;;
50683;SDS011;36654;45.042;38.994;2024-01-30T10:07:17;6.10;;;3.60;;
50683;SDS011;36654;45.042;38.994;2024-01-30T10:09:47;10.73;;;5.45;;
50683;SDS011;36654;45.042;38.994;2024-01-30T10:12:14;5.47;;;3.20;;
50683;SDS011;36654;45.042;38.994;2024-01-30T10:14:40;4.57;;;2.83;;
50683;SDS011;36654;45.042;38.994;2024-01-30T10:17:09;6.40;;;3.78;;
50683;SDS011;36654;45.042;38.994;2024-01-30T10:19:37;5.00;;;3.08;;
50683;SDS011;36654;45.042;38.994;2024-01-30T10:22:04;5.40;;;3.47;;
50683;SDS011;36654;45.042;38.994;2024-01-30T10:24:29;3.20;;;2.90;;
50683;SDS011;36654;45.042;38.994;2024-01-30T10:26:57;6.75;;;3.58;;
50683;SDS011;36654;45.042;38.994;2024-01-30T10:29:27;5.93;;;3.63;;
50683;SDS011;36654;45.042;38.994;2024-01-30T10:31:59;4.75;;;2.85;;
50683;SDS011;36654;45.042;38.994;2024-01-30T10:34:25;5.40;;;3.20;;
50683;SDS011;36654;45.042;38.994;2024-01-30T10:36:56;5.45;;;3.17;;
50683;SDS011;36654;45.042;38.994;2024-01-30T10:39:32;11.88;;;5.25;;
50683;SDS011;36654;45.042;38.994;2024-01-30T10:42:03;5.93;;;2.90;;
50683;SDS011;36654;45.042;38.994;2024-01-30T10:44:36;4.78;;;3.20;;
50683;SDS011;36654;45.042;38.994;2024-01-30T10:47:06;6.25;;;2.67;;
50683;SDS011;36654;45.042;38.994;2024-01-30T10:49:36;4.80;;;2.78;;
50683;SDS011;36654;45.042;38.994;2024-01-30T10:52:03;5.10;;;3.20;;
50683;SDS011;36654;45.042;38.994;2024-01-30T10:54:33;4.45;;;2.85;;
50683;SDS011;36654;45.042;38.994;2024-01-30T10:57:00;5.50;;;3.28;;
50683;SDS011;36654;45.042;38.994;2024-01-30T10:59:30;12.25;;;3.72;;
50683;SDS011;36654;45.042;38.994;2024-01-30T11:01:59;6.65;;;3.10;;
50683;SDS011;36654;45.042;38.994;2024-01-30T11:04:27;7.38;;;2.83;;
50683;SDS011;36654;45.042;38.994;2024-01-30T11:06:52;7.72;;;2.65;;
50683;SDS011;36654;45.042;38.994;2024-01-30T11:09:19;6.45;;;3.20;;
50683;SDS011;36654;45.042;38.994;2024-01-30T11:11:51;6.00;;;2.78;;
50683;SDS011;36654;45.042;38.994;2024-01-30T11:14:31;8.85;;;3.65;;
50683;SDS011;36654;45.042;38.994;2024-01-30T11:16:59;4.03;;;3.35;;
50683;SDS011;36654;45.042;38.994;2024-01-30T11:19:25;8.95;;;2.78;;
50683;SDS011;36654;45.042;38.994;2024-01-30T11:21:55;4.60;;;3.08;;
50683;SDS011;36654;45.042;38.994;2024-01-30T11:24:22;3.88;;;2.90;;
50683;SDS011;36654;45.042;38.994;2024-01-30T11:27:01;9.18;;;3.95;;
50683;SDS011;36654;45.042;38.994;2024-01-30T11:29:33;5.32;;;3.60;;
50683;SDS011;36654;45.042;38.994;2024-01-30T11:32:00;7.28;;;3.60;;
50683;SDS011;36654;45.042;38.994;2024-01-30T11:34:26;8.57;;;3.50;;
50683;SDS011;36654;45.042;38.994;2024-01-30T11:36:52;10.63;;;3.53;;
50683;SDS011;36654;45.042;38.994;2024-01-30T11:39:24;6.03;;;3.67;;
50683;SDS011;36654;45.042;38.994;2024-01-30T11:41:51;6.00;;;3.50;;
50683;SDS011;36654;45.042;38.994;2024-01-30T11:44:21;9.88;;;3.38;;
50683;SDS011;36654;45.042;38.994;2024-01-30T11:49:16;4.85;;;3.58;;
50683;SDS011;36654;45.042;38.994;2024-01-30T11:51:43;9.40;;;4.65;;
50683;SDS011;36654;45.042;38.994;2024-01-30T11:54:10;12.65;;;4.25;;
50683;SDS011;36654;45.042;38.994;2024-01-30T11:56:37;7.30;;;4.20;;
50683;SDS011;36654;45.042;38.994;2024-01-30T11:59:04;12.15;;;4.90;;
50683;SDS011;36654;45.042;38.994;2024-01-30T12:01:30;11.55;;;4.85;;
50683;SDS011;36654;45.042;38.994;2024-01-30T12:03:58;10.13;;;4.22;;
50683;SDS011;36654;45.042;38.994;2024-01-30T12:06:24;7.93;;;4.55;;
50683;SDS011;36654;45.042;38.994;2024-01-30T12:11:28;11.63;;;5.03;;
50683;SDS011;36654;45.042;38.994;2024-01-30T12:13:55;7.97;;;4.00;;
50683;SDS011;36654;45.042;38.994;2024-01-30T12:16:21;6.50;;;4.05;;
50683;SDS011;36654;45.042;38.994;2024-01-30T12:18:47;5.07;;;3.40;;
50683;SDS011;36654;45.042;38.994;2024-01-30T12:21:15;8.70;;;4.57;;
50683;SDS011;36654;45.042;38.994;2024-01-30T12:23:42;7.95;;;4.13;;
50683;SDS011;36654;45.042;38.994;2024-01-30T12:26:08;6.30;;;4.15;;
50683;SDS011;36654;45.042;38.994;2024-01-30T12:28:33;7.60;;;3.80;;
50683;SDS011;36654;45.042;38.994;2024-01-30T12:31:03;6.72;;;3.85;;
50683;SDS011;36654;45.042;38.994;2024-01-30T12:33:29;12.75;;;4.90;;
50683;SDS011;36654;45.042;38.994;2024-01-30T12:36:01;14.70;;;4.70;;
50683;SDS011;36654;45.042;38.994;2024-01-30T12:38:27;10.48;;;4.72;;
50683;SDS011;36654;45.042;38.994;2024-01-30T12:40:56;10.25;;;4.22;;
50683;SDS011;36654;45.042;38.994;2024-01-30T12:43:22;8.15;;;4.10;;
50683;SDS011;36654;45.042;38.994;2024-01-30T12:45:49;8.00;;;5.07;;
50683;SDS011;36654;45.042;38.994;2024-01-30T12:48:15;9.38;;;4.22;;
50683;SDS011;36654;45.042;38.994;2024-01-30T12:50:42;9.25;;;3.90;;
50683;SDS011;36654;45.042;38.994;2024-01-30T12:53:07;6.22;;;3.55;;
50683;SDS011;36654;45.042;38.994;2024-01-30T12:55:34;6.63;;;3.08;;
50683;SDS011;36654;45.042;38.994;2024-01-30T12:58:00;9.18;;;3.65;;
50683;SDS011;36654;45.042;38.994;2024-01-30T13:00:26;7.22;;;4.47;;
50683;SDS011;36654;45.042;38.994;2024-01-30T13:02:54;7.80;;;3.38;;
50683;SDS011;36654;45.042;38.994;2024-01-30T13:05:20;10.45;;;4.28;;
50683;SDS011;36654;45.042;38.994;2024-01-30T13:07:47;10.32;;;3.63;;
50683;SDS011;36654;45.042;38.994;2024-01-30T13:10:12;9.10;;;4.00;;
50683;SDS011;36654;45.042;38.994;2024-01-30T13:12:38;7.65;;;4.03;;
50683;SDS011;36654;45.042;38.994;2024-01-30T13:15:04;6.15;;;4.00;;
50683;SDS011;36654;45.042;38.994;2024-01-30T13:17:30;10.02;;;4.15;;
50683;SDS011;36654;45.042;38.994;2024-01-30T13:19:57;10.43;;;4.38;;
50683;SDS011;36654;45.042;38.994;2024-01-30T13:22:23;10.27;;;3.72;;
50683;SDS011;36654;45.042;38.994;2024-01-30T13:24:50;9.02;;;3.80;;
50683;SDS011;36654;45.042;38.994;2024-01-30T13:27:16;9.90;;;4.50;;
50683;SDS011;36654;45.042;38.994;2024-01-30T13:29:42;7.80;;;4.90;;
50683;SDS011;36654;45.042;38.994;2024-01-30T13:32:07;12.70;;;4.88;;
50683;SDS011;36654;45.042;38.994;2024-01-30T13:34:33;16.83;;;6.00;;
50683;SDS011;36654;45.042;38.994;2024-01-30T13:37:00;10.10;;;5.18;;
50683;SDS011;36654;45.042;38.994;2024-01-30T13:39:26;10.15;;;4.68;;
50683;SDS011;36654;45.042;38.994;2024-01-30T13:41:51;10.38;;;4.38;;
50683;SDS011;36654;45.042;38.994;2024-01-30T13:44:17;8.88;;;4.55;;
50683;SDS011;36654;45.042;38.994;2024-01-30T13:46:43;8.30;;;3.85;;
50683;SDS011;36654;45.042;38.994;2024-01-30T13:49:10;9.57;;;4.18;;
50683;SDS011;36654;45.042;38.994;2024-01-30T13:51:35;7.13;;;3.78;;
50683;SDS011;36654;45.042;38.994;2024-01-30T13:54:01;6.72;;;3.53;;
50683;SDS011;36654;45.042;38.994;2024-01-30T13:56:27;7.22;;;3.53;;
50683;SDS011;36654;45.042;38.994;2024-01-30T13:58:53;7.43;;;3.15;;
50683;SDS011;36654;45.042;38.994;2024-01-30T14:01:20;8.20;;;3.70;;
50683;SDS011;36654;45.042;38.994;2024-01-30T14:03:46;8.93;;;4.30;;
50683;SDS011;36654;45.042;38.994;2024-01-30T14:06:12;9.63;;;4.30;;
50683;SDS011;36654;45.042;38.994;2024-01-30T14:08:37;5.78;;;3.50;;
50683;SDS011;36654;45.042;38.994;2024-01-30T14:11:03;21.40;;;4.57;;
50683;SDS011;36654;45.042;38.994;2024-01-30T14:13:29;8.50;;;3.22;;
50683;SDS011;36654;45.042;38.994;2024-01-30T14:15:57;6.35;;;3.83;;
50683;SDS011;36654;45.042;38.994;2024-01-30T14:18:23;6.70;;;3.40;;
50683;SDS011;36654;45.042;38.994;2024-01-30T14:20:50;5.15;;;3.30;;
50683;SDS011;36654;45.042;38.994;2024-01-30T14:23:17;5.13;;;3.35;;
50683;SDS011;36654;45.042;38.994;2024-01-30T14:25:43;6.78;;;3.50;;
50683;SDS011;36654;45.042;38.994;2024-01-30T14:28:09;5.75;;;3.28;;